sensor_id;sensor_type;location;lat;lon;timestamp;temperature;humidity
54680;DHT22;40578;53.178;5.846;2023-04-19T00:01:24;7.30;99.90
54680;DHT22;40578;53.178;5.846;2023-04-19T00:03:50;7.30;99.90
54680;DHT22;40578;53.178;5.846;2023-04-19T00:06:16;7.30;99.90
54680;DHT22;40578;53.178;5.846;2023-04-19T00:08:42;7.30;99.90
54680;DHT22;40578;53.178;5.846;2023-04-19T00:11:09;8.60;99.90
54680;DHT22;40578;53.178;5.846;2023-04-19T00:13:35;7.30;99.90
54680;DHT22;40578;53.178;5.846;2023-04-19T00:16:01;7.30;99.90
54680;DHT22;40578;53.178;5.846;2023-04-19T00:18:26;7.70;99.90
54680;DHT22;40578;53.178;5.846;2023-04-19T00:20:52;7.30;99.90
54680;DHT22;40578;53.178;5.846;2023-04-19T00:23:17;7.30;99.90
54680;DHT22;40578;53.178;5.846;2023-04-19T00:25:48;7.30;99.90
54680;DHT22;40578;53.178;5.846;2023-04-19T00:28:14;7.40;99.90
54680;DHT22;40578;53.178;5.846;2023-04-19T00:30:40;7.30;99.90
54680;DHT22;40578;53.178;5.846;2023-04-19T00:33:05;7.30;99.90
54680;DHT22;40578;53.178;5.846;2023-04-19T00:35:40;7.20;99.90
54680;DHT22;40578;53.178;5.846;2023-04-19T00:38:08;7.20;99.90
54680;DHT22;40578;53.178;5.846;2023-04-19T00:40:36;7.10;99.90
54680;DHT22;40578;53.178;5.846;2023-04-19T00:43:02;7.10;99.90
54680;DHT22;40578;53.178;5.846;2023-04-19T00:45:28;7.00;99.90
54680;DHT22;40578;53.178;5.846;2023-04-19T00:47:54;7.00;99.90
54680;DHT22;40578;53.178;5.846;2023-04-19T00:50:20;7.00;99.90
54680;DHT22;40578;53.178;5.846;2023-04-19T00:52:46;7.10;99.90
54680;DHT22;40578;53.178;5.846;2023-04-19T00:55:12;7.00;99.90
54680;DHT22;40578;53.178;5.846;2023-04-19T00:57:38;7.00;99.90
54680;DHT22;40578;53.178;5.846;2023-04-19T01:00:04;7.00;99.90
54680;DHT22;40578;53.178;5.846;2023-04-19T01:02:34;7.00;99.90
54680;DHT22;40578;53.178;5.846;2023-04-19T01:05:00;7.00;99.90
54680;DHT22;40578;53.178;5.846;2023-04-19T01:07:26;7.00;99.90
54680;DHT22;40578;53.178;5.846;2023-04-19T01:09:52;7.00;99.90
54680;DHT22;40578;53.178;5.846;2023-04-19T01:12:18;7.00;99.90
54680;DHT22;40578;53.178;5.846;2023-04-19T01:14:43;7.00;99.90
54680;DHT22;40578;53.178;5.846;2023-04-19T01:17:09;6.90;99.90
54680;DHT22;40578;53.178;5.846;2023-04-19T01:19:35;7.00;99.90
54680;DHT22;40578;53.178;5.846;2023-04-19T01:22:01;7.00;99.90
54680;DHT22;40578;53.178;5.846;2023-04-19T01:24:29;6.90;99.90
54680;DHT22;40578;53.178;5.846;2023-04-19T01:26:54;7.00;99.90
54680;DHT22;40578;53.178;5.846;2023-04-19T01:29:20;7.00;99.90
54680;DHT22;40578;53.178;5.846;2023-04-19T01:31:47;7.00;99.90
54680;DHT22;40578;53.178;5.846;2023-04-19T01:34:16;7.00;99.90
54680;DHT22;40578;53.178;5.846;2023-04-19T01:36:41;7.00;99.90
54680;DHT22;40578;53.178;5.846;2023-04-19T01:39:07;7.30;99.90
54680;DHT22;40578;53.178;5.846;2023-04-19T01:41:32;7.00;99.90
54680;DHT22;40578;53.178;5.846;2023-04-19T01:43:58;7.00;99.90
54680;DHT22;40578;53.178;5.846;2023-04-19T01:46:25;7.00;99.90
54680;DHT22;40578;53.178;5.846;2023-04-19T01:48:50;6.90;99.90
54680;DHT22;40578;53.178;5.846;2023-04-19T01:51:16;7.20;99.90
54680;DHT22;40578;53.178;5.846;2023-04-19T01:53:42;7.00;99.90
54680;DHT22;40578;53.178;5.846;2023-04-19T01:56:08;6.90;99.90
54680;DHT22;40578;53.178;5.846;2023-04-19T01:58:33;6.90;99.90
54680;DHT22;40578;53.178;5.846;2023-04-19T02:00:59;7.40;99.90
54680;DHT22;40578;53.178;5.846;2023-04-19T02:03:24;7.00;99.90
54680;DHT22;40578;53.178;5.846;2023-04-19T02:05:50;7.00;99.90
54680;DHT22;40578;53.178;5.846;2023-04-19T02:08:16;7.00;99.90
54680;DHT22;40578;53.178;5.846;2023-04-19T02:10:42;6.90;99.90
54680;DHT22;40578;53.178;5.846;2023-04-19T02:13:07;6.90;99.90
54680;DHT22;40578;53.178;5.846;2023-04-19T02:15:35;6.90;99.90
54680;DHT22;40578;53.178;5.846;2023-04-19T02:18:00;6.90;99.90
54680;DHT22;40578;53.178;5.846;2023-04-19T02:20:26;6.90;99.90
54680;DHT22;40578;53.178;5.846;2023-04-19T02:22:52;6.90;99.90
54680;DHT22;40578;53.178;5.846;2023-04-19T02:25:17;5.60;99.90
54680;DHT22;40578;53.178;5.846;2023-04-19T02:27:43;6.90;99.90
54680;DHT22;40578;53.178;5.846;2023-04-19T02:30:09;6.90;99.90
54680;DHT22;40578;53.178;5.846;2023-04-19T02:32:35;6.90;99.90
54680;DHT22;40578;53.178;5.846;2023-04-19T02:35:01;6.90;99.90
54680;DHT22;40578;53.178;5.846;2023-04-19T02:37:26;6.90;99.90
54680;DHT22;40578;53.178;5.846;2023-04-19T02:39:52;6.80;99.90
54680;DHT22;40578;53.178;5.846;2023-04-19T02:42:18;6.80;99.90
54680;DHT22;40578;53.178;5.846;2023-04-19T02:44:43;6.80;99.90
54680;DHT22;40578;53.178;5.846;2023-04-19T02:47:09;6.80;99.90
54680;DHT22;40578;53.178;5.846;2023-04-19T02:49:34;6.70;99.90
54680;DHT22;40578;53.178;5.846;2023-04-19T02:52:02;6.80;99.90
54680;DHT22;40578;53.178;5.846;2023-04-19T02:54:28;6.80;99.90
54680;DHT22;40578;53.178;5.846;2023-04-19T02:56:53;6.80;99.90
54680;DHT22;40578;53.178;5.846;2023-04-19T02:59:19;6.80;99.90
54680;DHT22;40578;53.178;5.846;2023-04-19T03:01:44;6.70;99.90
54680;DHT22;40578;53.178;5.846;2023-04-19T03:04:10;6.80;99.90
54680;DHT22;40578;53.178;5.846;2023-04-19T03:06:36;6.70;99.90
54680;DHT22;40578;53.178;5.846;2023-04-19T03:09:02;6.60;99.90
54680;DHT22;40578;53.178;5.846;2023-04-19T03:11:27;6.60;99.90
54680;DHT22;40578;53.178;5.846;2023-04-19T03:13:53;6.60;99.90
54680;DHT22;40578;53.178;5.846;2023-04-19T03:16:18;6.60;99.90
54680;DHT22;40578;53.178;5.846;2023-04-19T03:18:44;6.60;99.90
54680;DHT22;40578;53.178;5.846;2023-04-19T03:21:10;6.60;99.90
54680;DHT22;40578;53.178;5.846;2023-04-19T03:23:36;6.50;99.90
54680;DHT22;40578;53.178;5.846;2023-04-19T03:26:01;6.50;99.90
54680;DHT22;40578;53.178;5.846;2023-04-19T03:28:27;6.50;99.90
54680;DHT22;40578;53.178;5.846;2023-04-19T03:30:53;6.50;99.90
54680;DHT22;40578;53.178;5.846;2023-04-19T03:33:18;6.50;99.90
54680;DHT22;40578;53.178;5.846;2023-04-19T03:35:44;6.40;99.90
54680;DHT22;40578;53.178;5.846;2023-04-19T03:38:10;6.40;99.90
54680;DHT22;40578;53.178;5.846;2023-04-19T03:40:36;6.40;99.90
54680;DHT22;40578;53.178;5.846;2023-04-19T03:43:02;6.30;99.90
54680;DHT22;40578;53.178;5.846;2023-04-19T03:45:28;6.30;99.90
54680;DHT22;40578;53.178;5.846;2023-04-19T03:47:54;6.30;99.90
54680;DHT22;40578;53.178;5.846;2023-04-19T03:50:19;6.30;99.90
54680;DHT22;40578;53.178;5.846;2023-04-19T03:52:45;6.20;99.90
54680;DHT22;40578;53.178;5.846;2023-04-19T03:55:10;6.20;99.90
54680;DHT22;40578;53.178;5.846;2023-04-19T03:57:39;6.10;99.90
54680;DHT22;40578;53.178;5.846;2023-04-19T04:00:05;6.00;99.90
54680;DHT22;40578;53.178;5.846;2023-04-19T04:02:36;6.00;99.90
54680;DHT22;40578;53.178;5.846;2023-04-19T04:05:03;6.00;99.90
54680;DHT22;40578;53.178;5.846;2023-04-19T04:07:28;6.10;99.90
54680;DHT22;40578;53.178;5.846;2023-04-19T04:09:54;7.20;99.90
54680;DHT22;40578;53.178;5.846;2023-04-19T04:12:19;5.90;99.90
54680;DHT22;40578;53.178;5.846;2023-04-19T04:14:45;5.90;99.90
54680;DHT22;40578;53.178;5.846;2023-04-19T04:17:11;5.80;99.90
54680;DHT22;40578;53.178;5.846;2023-04-19T04:19:36;5.80;99.90
54680;DHT22;40578;53.178;5.846;2023-04-19T04:22:03;5.80;99.90
54680;DHT22;40578;53.178;5.846;2023-04-19T04:24:28;5.80;99.90
54680;DHT22;40578;53.178;5.846;2023-04-19T04:26:57;5.80;99.90
54680;DHT22;40578;53.178;5.846;2023-04-19T04:29:25;5.70;99.90
54680;DHT22;40578;53.178;5.846;2023-04-19T04:31:51;5.80;99.90
54680;DHT22;40578;53.178;5.846;2023-04-19T04:34:16;5.70;99.90
54680;DHT22;40578;53.178;5.846;2023-04-19T04:36:42;5.70;99.90
54680;DHT22;40578;53.178;5.846;2023-04-19T04:39:08;5.70;99.90
54680;DHT22;40578;53.178;5.846;2023-04-19T04:41:36;5.60;99.90
54680;DHT22;40578;53.178;5.846;2023-04-19T04:44:05;5.60;99.90
54680;DHT22;40578;53.178;5.846;2023-04-19T04:46:31;5.60;99.90
54680;DHT22;40578;53.178;5.846;2023-04-19T04:48:56;5.60;99.90
54680;DHT22;40578;53.178;5.846;2023-04-19T04:51:22;5.60;99.90
54680;DHT22;40578;53.178;5.846;2023-04-19T04:53:47;5.60;99.90
54680;DHT22;40578;53.178;5.846;2023-04-19T04:56:13;5.70;99.90
54680;DHT22;40578;53.178;5.846;2023-04-19T04:58:38;5.60;99.90
54680;DHT22;40578;53.178;5.846;2023-04-19T05:01:04;5.60;99.90
54680;DHT22;40578;53.178;5.846;2023-04-19T05:03:30;5.60;99.90
54680;DHT22;40578;53.178;5.846;2023-04-19T05:05:55;5.60;99.90
54680;DHT22;40578;53.178;5.846;2023-04-19T05:08:21;5.60;99.90
54680;DHT22;40578;53.178;5.846;2023-04-19T05:10:47;5.60;99.90
54680;DHT22;40578;53.178;5.846;2023-04-19T05:13:12;5.70;99.90
54680;DHT22;40578;53.178;5.846;2023-04-19T05:15:38;6.10;99.90
54680;DHT22;40578;53.178;5.846;2023-04-19T05:18:04;6.00;99.90
54680;DHT22;40578;53.178;5.846;2023-04-19T05:20:30;6.20;99.90
54680;DHT22;40578;53.178;5.846;2023-04-19T05:22:58;6.20;99.90
54680;DHT22;40578;53.178;5.846;2023-04-19T05:25:25;6.30;99.90
54680;DHT22;40578;53.178;5.846;2023-04-19T05:27:50;6.40;99.90
54680;DHT22;40578;53.178;5.846;2023-04-19T05:30:16;6.20;99.90
54680;DHT22;40578;53.178;5.846;2023-04-19T05:32:42;6.10;99.90
54680;DHT22;40578;53.178;5.846;2023-04-19T05:35:07;6.10;99.90
54680;DHT22;40578;53.178;5.846;2023-04-19T05:37:33;6.20;99.90
54680;DHT22;40578;53.178;5.846;2023-04-19T05:40:01;6.20;99.90
54680;DHT22;40578;53.178;5.846;2023-04-19T05:42:30;6.30;99.90
54680;DHT22;40578;53.178;5.846;2023-04-19T05:44:56;6.20;99.90
54680;DHT22;40578;53.178;5.846;2023-04-19T05:47:22;6.20;99.90
54680;DHT22;40578;53.178;5.846;2023-04-19T05:49:48;6.20;99.90
54680;DHT22;40578;53.178;5.846;2023-04-19T05:52:13;6.30;99.90
54680;DHT22;40578;53.178;5.846;2023-04-19T05:54:39;6.30;99.90
54680;DHT22;40578;53.178;5.846;2023-04-19T05:57:05;6.30;99.90
54680;DHT22;40578;53.178;5.846;2023-04-19T05:59:31;6.30;99.90
54680;DHT22;40578;53.178;5.846;2023-04-19T06:01:57;6.40;99.90
54680;DHT22;40578;53.178;5.846;2023-04-19T06:04:23;6.40;99.90
54680;DHT22;40578;53.178;5.846;2023-04-19T06:06:48;6.50;99.90
54680;DHT22;40578;53.178;5.846;2023-04-19T06:09:14;6.60;99.90
54680;DHT22;40578;53.178;5.846;2023-04-19T06:11:40;6.60;99.90
54680;DHT22;40578;53.178;5.846;2023-04-19T06:14:06;6.70;99.90
54680;DHT22;40578;53.178;5.846;2023-04-19T06:16:31;6.90;99.90
54680;DHT22;40578;53.178;5.846;2023-04-19T06:18:57;7.10;99.90
54680;DHT22;40578;53.178;5.846;2023-04-19T06:21:22;7.00;99.90
54680;DHT22;40578;53.178;5.846;2023-04-19T06:23:48;7.10;99.90
54680;DHT22;40578;53.178;5.846;2023-04-19T06:26:14;7.20;99.90
54680;DHT22;40578;53.178;5.846;2023-04-19T06:28:39;7.40;99.90
54680;DHT22;40578;53.178;5.846;2023-04-19T06:31:05;7.50;99.90
54680;DHT22;40578;53.178;5.846;2023-04-19T06:33:31;7.40;99.90
54680;DHT22;40578;53.178;5.846;2023-04-19T06:35:56;7.50;99.90
54680;DHT22;40578;53.178;5.846;2023-04-19T06:38:22;7.50;99.90
54680;DHT22;40578;53.178;5.846;2023-04-19T06:40:47;7.60;99.90
54680;DHT22;40578;53.178;5.846;2023-04-19T06:43:13;7.60;99.90
54680;DHT22;40578;53.178;5.846;2023-04-19T06:45:39;7.90;99.90
54680;DHT22;40578;53.178;5.846;2023-04-19T06:48:04;7.70;99.90
54680;DHT22;40578;53.178;5.846;2023-04-19T06:50:30;7.70;99.90
54680;DHT22;40578;53.178;5.846;2023-04-19T06:52:56;7.70;99.90
54680;DHT22;40578;53.178;5.846;2023-04-19T06:55:22;7.80;99.90
54680;DHT22;40578;53.178;5.846;2023-04-19T06:57:47;7.80;99.90
54680;DHT22;40578;53.178;5.846;2023-04-19T07:00:13;7.90;99.90
54680;DHT22;40578;53.178;5.846;2023-04-19T07:02:39;7.90;99.90
54680;DHT22;40578;53.178;5.846;2023-04-19T07:05:05;8.00;99.90
54680;DHT22;40578;53.178;5.846;2023-04-19T07:07:32;8.00;99.90
54680;DHT22;40578;53.178;5.846;2023-04-19T07:09:58;8.10;99.90
54680;DHT22;40578;53.178;5.846;2023-04-19T07:12:23;8.20;99.90
54680;DHT22;40578;53.178;5.846;2023-04-19T07:14:49;8.20;99.90
54680;DHT22;40578;53.178;5.846;2023-04-19T07:17:21;8.20;99.90
54680;DHT22;40578;53.178;5.846;2023-04-19T07:19:47;8.30;99.90
54680;DHT22;40578;53.178;5.846;2023-04-19T07:22:13;8.40;99.90
54680;DHT22;40578;53.178;5.846;2023-04-19T07:24:38;8.40;99.90
54680;DHT22;40578;53.178;5.846;2023-04-19T07:27:06;8.50;99.90
54680;DHT22;40578;53.178;5.846;2023-04-19T07:29:35;8.60;99.90
54680;DHT22;40578;53.178;5.846;2023-04-19T07:32:02;8.70;99.90
54680;DHT22;40578;53.178;5.846;2023-04-19T07:34:27;8.70;99.90
54680;DHT22;40578;53.178;5.846;2023-04-19T07:36:53;8.70;99.90
54680;DHT22;40578;53.178;5.846;2023-04-19T07:39:19;8.80;99.90
54680;DHT22;40578;53.178;5.846;2023-04-19T07:41:44;8.90;99.90
54680;DHT22;40578;53.178;5.846;2023-04-19T07:44:10;9.00;99.90
54680;DHT22;40578;53.178;5.846;2023-04-19T07:46:37;9.00;99.90
54680;DHT22;40578;53.178;5.846;2023-04-19T07:49:03;9.10;99.90
54680;DHT22;40578;53.178;5.846;2023-04-19T07:51:28;9.10;99.90
54680;DHT22;40578;53.178;5.846;2023-04-19T07:53:54;9.10;99.90
54680;DHT22;40578;53.178;5.846;2023-04-19T07:56:21;9.20;99.90
54680;DHT22;40578;53.178;5.846;2023-04-19T07:58:47;9.30;99.90
54680;DHT22;40578;53.178;5.846;2023-04-19T08:01:13;9.50;99.90
54680;DHT22;40578;53.178;5.846;2023-04-19T08:03:38;9.30;99.90
54680;DHT22;40578;53.178;5.846;2023-04-19T08:06:05;9.40;99.90
54680;DHT22;40578;53.178;5.846;2023-04-19T08:08:33;9.50;99.90
54680;DHT22;40578;53.178;5.846;2023-04-19T08:10:59;9.80;99.90
54680;DHT22;40578;53.178;5.846;2023-04-19T08:13:27;9.50;99.90
54680;DHT22;40578;53.178;5.846;2023-04-19T08:15:52;9.60;99.90
54680;DHT22;40578;53.178;5.846;2023-04-19T08:18:18;9.70;99.90
54680;DHT22;40578;53.178;5.846;2023-04-19T08:20:45;9.70;99.90
54680;DHT22;40578;53.178;5.846;2023-04-19T08:23:11;9.80;99.90
54680;DHT22;40578;53.178;5.846;2023-04-19T08:25:37;9.80;99.90
54680;DHT22;40578;53.178;5.846;2023-04-19T08:28:03;9.90;99.90
54680;DHT22;40578;53.178;5.846;2023-04-19T08:30:29;10.00;99.90
54680;DHT22;40578;53.178;5.846;2023-04-19T08:32:55;10.00;99.90
54680;DHT22;40578;53.178;5.846;2023-04-19T08:35:21;10.10;99.90
54680;DHT22;40578;53.178;5.846;2023-04-19T08:37:47;10.20;99.90
54680;DHT22;40578;53.178;5.846;2023-04-19T08:40:13;10.10;99.90
54680;DHT22;40578;53.178;5.846;2023-04-19T08:42:39;10.10;99.90
54680;DHT22;40578;53.178;5.846;2023-04-19T08:45:05;10.20;99.90
54680;DHT22;40578;53.178;5.846;2023-04-19T08:47:33;10.20;99.90
54680;DHT22;40578;53.178;5.846;2023-04-19T08:50:04;10.30;99.90
54680;DHT22;40578;53.178;5.846;2023-04-19T08:52:32;10.30;99.90
54680;DHT22;40578;53.178;5.846;2023-04-19T08:55:04;10.40;99.90
54680;DHT22;40578;53.178;5.846;2023-04-19T08:57:31;10.30;99.90
54680;DHT22;40578;53.178;5.846;2023-04-19T08:59:58;10.50;99.90
54680;DHT22;40578;53.178;5.846;2023-04-19T09:02:24;10.60;99.90
54680;DHT22;40578;53.178;5.846;2023-04-19T09:04:49;10.80;99.90
54680;DHT22;40578;53.178;5.846;2023-04-19T09:07:22;11.00;99.90
54680;DHT22;40578;53.178;5.846;2023-04-19T09:10:06;10.80;99.90
54680;DHT22;40578;53.178;5.846;2023-04-19T09:12:36;10.80;99.90
54680;DHT22;40578;53.178;5.846;2023-04-19T09:15:03;11.30;99.90
54680;DHT22;40578;53.178;5.846;2023-04-19T09:17:30;10.90;99.90
54680;DHT22;40578;53.178;5.846;2023-04-19T09:19:56;11.00;99.90
54680;DHT22;40578;53.178;5.846;2023-04-19T09:22:23;11.00;99.90
54680;DHT22;40578;53.178;5.846;2023-04-19T09:24:50;11.30;99.90
54680;DHT22;40578;53.178;5.846;2023-04-19T09:27:27;11.20;99.90
54680;DHT22;40578;53.178;5.846;2023-04-19T09:29:54;11.30;99.90
54680;DHT22;40578;53.178;5.846;2023-04-19T09:32:21;11.20;99.90
54680;DHT22;40578;53.178;5.846;2023-04-19T09:34:54;11.20;99.90
54680;DHT22;40578;53.178;5.846;2023-04-19T09:37:22;11.40;99.90
54680;DHT22;40578;53.178;5.846;2023-04-19T09:39:48;11.40;99.90
54680;DHT22;40578;53.178;5.846;2023-04-19T09:42:14;11.50;99.90
54680;DHT22;40578;53.178;5.846;2023-04-19T09:44:39;11.50;99.90
54680;DHT22;40578;53.178;5.846;2023-04-19T09:47:24;11.50;99.90
54680;DHT22;40578;53.178;5.846;2023-04-19T09:50:04;12.70;99.90
54680;DHT22;40578;53.178;5.846;2023-04-19T09:52:32;11.70;99.90
54680;DHT22;40578;53.178;5.846;2023-04-19T09:55:01;11.70;99.90
54680;DHT22;40578;53.178;5.846;2023-04-19T09:57:29;11.70;99.90
54680;DHT22;40578;53.178;5.846;2023-04-19T09:59:55;11.70;99.90
54680;DHT22;40578;53.178;5.846;2023-04-19T10:02:23;13.50;99.90
54680;DHT22;40578;53.178;5.846;2023-04-19T10:04:50;11.80;99.90
54680;DHT22;40578;53.178;5.846;2023-04-19T10:07:16;11.90;99.90
54680;DHT22;40578;53.178;5.846;2023-04-19T10:09:42;11.90;99.90
54680;DHT22;40578;53.178;5.846;2023-04-19T10:12:09;12.00;99.90
54680;DHT22;40578;53.178;5.846;2023-04-19T10:14:35;12.00;99.90
54680;DHT22;40578;53.178;5.846;2023-04-19T10:17:01;12.10;99.90
54680;DHT22;40578;53.178;5.846;2023-04-19T10:19:28;12.10;99.90
54680;DHT22;40578;53.178;5.846;2023-04-19T10:21:54;12.20;99.90
54680;DHT22;40578;53.178;5.846;2023-04-19T10:24:20;12.20;99.90
54680;DHT22;40578;53.178;5.846;2023-04-19T10:27:10;12.20;99.90
54680;DHT22;40578;53.178;5.846;2023-04-19T10:29:59;12.30;99.90
54680;DHT22;40578;53.178;5.846;2023-04-19T10:35:09;12.40;99.90
54680;DHT22;40578;53.178;5.846;2023-04-19T10:37:42;12.40;99.90
54680;DHT22;40578;53.178;5.846;2023-04-19T10:43:17;12.50;99.90
54680;DHT22;40578;53.178;5.846;2023-04-19T10:45:44;12.60;99.90
54680;DHT22;40578;53.178;5.846;2023-04-19T10:53:58;12.70;99.90
54680;DHT22;40578;53.178;5.846;2023-04-19T11:04:06;12.80;99.90
54680;DHT22;40578;53.178;5.846;2023-04-19T11:06:33;12.80;99.90
54680;DHT22;40578;53.178;5.846;2023-04-19T11:09:02;14.60;99.90
54680;DHT22;40578;53.178;5.846;2023-04-19T11:11:33;12.80;99.90
54680;DHT22;40578;53.178;5.846;2023-04-19T11:14:01;12.70;99.90
54680;DHT22;40578;53.178;5.846;2023-04-19T11:16:27;12.70;99.90
54680;DHT22;40578;53.178;5.846;2023-04-19T11:18:53;12.80;99.90
54680;DHT22;40578;53.178;5.846;2023-04-19T11:21:20;12.80;99.90
54680;DHT22;40578;53.178;5.846;2023-04-19T11:23:45;12.80;99.90
54680;DHT22;40578;53.178;5.846;2023-04-19T11:26:13;12.80;99.90
54680;DHT22;40578;53.178;5.846;2023-04-19T11:28:39;12.90;99.90
54680;DHT22;40578;53.178;5.846;2023-04-19T11:31:05;13.00;99.90
54680;DHT22;40578;53.178;5.846;2023-04-19T11:33:35;13.10;99.90
54680;DHT22;40578;53.178;5.846;2023-04-19T11:36:01;13.10;99.90
54680;DHT22;40578;53.178;5.846;2023-04-19T11:38:28;13.20;99.90
54680;DHT22;40578;53.178;5.846;2023-04-19T11:41:02;13.10;99.90
54680;DHT22;40578;53.178;5.846;2023-04-19T11:43:35;13.00;99.90
54680;DHT22;40578;53.178;5.846;2023-04-19T11:46:09;13.10;99.90
54680;DHT22;40578;53.178;5.846;2023-04-19T11:48:35;13.20;99.90
54680;DHT22;40578;53.178;5.846;2023-04-19T11:51:02;13.30;99.90
54680;DHT22;40578;53.178;5.846;2023-04-19T11:53:31;13.20;99.90
54680;DHT22;40578;53.178;5.846;2023-04-19T11:56:03;13.10;99.90
54680;DHT22;40578;53.178;5.846;2023-04-19T11:58:29;13.60;99.90
54680;DHT22;40578;53.178;5.846;2023-04-19T12:01:05;13.10;99.90
54680;DHT22;40578;53.178;5.846;2023-04-19T12:03:54;13.60;99.90
54680;DHT22;40578;53.178;5.846;2023-04-19T12:06:26;13.20;99.90
54680;DHT22;40578;53.178;5.846;2023-04-19T12:08:53;13.20;99.90
54680;DHT22;40578;53.178;5.846;2023-04-19T12:11:24;13.20;99.90
54680;DHT22;40578;53.178;5.846;2023-04-19T12:14:14;13.30;99.90
54680;DHT22;40578;53.178;5.846;2023-04-19T12:16:40;13.20;99.90
54680;DHT22;40578;53.178;5.846;2023-04-19T12:19:16;13.20;99.90
54680;DHT22;40578;53.178;5.846;2023-04-19T12:21:42;13.20;99.90
54680;DHT22;40578;53.178;5.846;2023-04-19T12:24:08;13.40;99.90
54680;DHT22;40578;53.178;5.846;2023-04-19T12:26:34;13.30;99.90
54680;DHT22;40578;53.178;5.846;2023-04-19T12:29:01;13.40;99.90
54680;DHT22;40578;53.178;5.846;2023-04-19T12:31:30;13.30;99.90
54680;DHT22;40578;53.178;5.846;2023-04-19T12:33:56;13.30;99.90
54680;DHT22;40578;53.178;5.846;2023-04-19T12:36:22;13.30;99.90
54680;DHT22;40578;53.178;5.846;2023-04-19T12:38:48;13.20;99.90
54680;DHT22;40578;53.178;5.846;2023-04-19T12:41:13;13.10;99.90
54680;DHT22;40578;53.178;5.846;2023-04-19T12:43:39;13.10;99.90
54680;DHT22;40578;53.178;5.846;2023-04-19T12:46:04;13.10;99.90
54680;DHT22;40578;53.178;5.846;2023-04-19T12:48:30;13.10;99.90
54680;DHT22;40578;53.178;5.846;2023-04-19T12:50:55;13.20;99.90
54680;DHT22;40578;53.178;5.846;2023-04-19T12:53:21;13.30;99.90
54680;DHT22;40578;53.178;5.846;2023-04-19T12:55:50;13.20;99.90
54680;DHT22;40578;53.178;5.846;2023-04-19T12:58:16;13.20;99.90
54680;DHT22;40578;53.178;5.846;2023-04-19T13:00:42;13.10;99.90
54680;DHT22;40578;53.178;5.846;2023-04-19T13:03:08;13.00;99.90
54680;DHT22;40578;53.178;5.846;2023-04-19T13:05:33;13.10;99.90
54680;DHT22;40578;53.178;5.846;2023-04-19T13:07:59;13.20;99.90
54680;DHT22;40578;53.178;5.846;2023-04-19T13:10:25;13.00;99.90
54680;DHT22;40578;53.178;5.846;2023-04-19T13:12:50;13.10;99.90
54680;DHT22;40578;53.178;5.846;2023-04-19T13:15:16;13.20;99.90
54680;DHT22;40578;53.178;5.846;2023-04-19T13:17:42;13.10;99.90
54680;DHT22;40578;53.178;5.846;2023-04-19T13:20:09;13.00;99.90
54680;DHT22;40578;53.178;5.846;2023-04-19T13:22:35;13.00;99.90
54680;DHT22;40578;53.178;5.846;2023-04-19T13:25:01;13.00;99.90
54680;DHT22;40578;53.178;5.846;2023-04-19T13:27:27;13.00;99.90
54680;DHT22;40578;53.178;5.846;2023-04-19T13:29:55;13.00;99.90
54680;DHT22;40578;53.178;5.846;2023-04-19T13:32:21;12.90;99.90
54680;DHT22;40578;53.178;5.846;2023-04-19T13:34:47;13.00;99.90
54680;DHT22;40578;53.178;5.846;2023-04-19T13:37:13;12.80;99.90
54680;DHT22;40578;53.178;5.846;2023-04-19T13:39:39;13.20;99.90
54680;DHT22;40578;53.178;5.846;2023-04-19T13:42:05;12.90;99.90
54680;DHT22;40578;53.178;5.846;2023-04-19T13:44:31;13.20;99.90
54680;DHT22;40578;53.178;5.846;2023-04-19T13:46:57;13.00;99.90
54680;DHT22;40578;53.178;5.846;2023-04-19T13:49:23;13.10;99.90
54680;DHT22;40578;53.178;5.846;2023-04-19T13:51:49;13.10;99.90
54680;DHT22;40578;53.178;5.846;2023-04-19T13:54:15;13.00;99.90
54680;DHT22;40578;53.178;5.846;2023-04-19T13:56:43;14.10;99.90
54680;DHT22;40578;53.178;5.846;2023-04-19T13:59:09;13.80;99.90
54680;DHT22;40578;53.178;5.846;2023-04-19T14:01:35;13.10;99.90
54680;DHT22;40578;53.178;5.846;2023-04-19T14:04:01;13.00;99.90
54680;DHT22;40578;53.178;5.846;2023-04-19T14:06:26;13.00;99.90
54680;DHT22;40578;53.178;5.846;2023-04-19T14:08:52;13.90;99.90
54680;DHT22;40578;53.178;5.846;2023-04-19T14:11:18;13.00;99.90
54680;DHT22;40578;53.178;5.846;2023-04-19T14:13:44;13.00;99.90
54680;DHT22;40578;53.178;5.846;2023-04-19T14:16:09;13.30;99.90
54680;DHT22;40578;53.178;5.846;2023-04-19T14:18:35;13.00;99.90
54680;DHT22;40578;53.178;5.846;2023-04-19T14:21:01;13.10;99.90
54680;DHT22;40578;53.178;5.846;2023-04-19T14:23:26;13.10;99.90
54680;DHT22;40578;53.178;5.846;2023-04-19T14:25:53;13.00;99.90
54680;DHT22;40578;53.178;5.846;2023-04-19T14:28:19;12.90;99.90
54680;DHT22;40578;53.178;5.846;2023-04-19T14:30:45;12.90;99.90
54680;DHT22;40578;53.178;5.846;2023-04-19T14:33:10;13.00;99.90
54680;DHT22;40578;53.178;5.846;2023-04-19T14:35:36;13.10;99.90
54680;DHT22;40578;53.178;5.846;2023-04-19T14:38:01;13.10;99.90
54680;DHT22;40578;53.178;5.846;2023-04-19T14:40:27;13.00;99.90
54680;DHT22;40578;53.178;5.846;2023-04-19T14:42:53;13.10;99.90
54680;DHT22;40578;53.178;5.846;2023-04-19T14:45:18;13.00;99.90
54680;DHT22;40578;53.178;5.846;2023-04-19T14:47:48;13.00;99.90
54680;DHT22;40578;53.178;5.846;2023-04-19T14:50:17;12.80;99.90
54680;DHT22;40578;53.178;5.846;2023-04-19T14:52:43;12.80;99.90
54680;DHT22;40578;53.178;5.846;2023-04-19T14:55:09;12.80;99.90
54680;DHT22;40578;53.178;5.846;2023-04-19T14:57:35;12.70;99.90
54680;DHT22;40578;53.178;5.846;2023-04-19T15:00:01;12.90;99.90
54680;DHT22;40578;53.178;5.846;2023-04-19T15:02:26;12.80;99.90
54680;DHT22;40578;53.178;5.846;2023-04-19T15:04:53;12.80;99.90
54680;DHT22;40578;53.178;5.846;2023-04-19T15:07:19;13.00;99.90
54680;DHT22;40578;53.178;5.846;2023-04-19T15:09:44;12.90;99.90
54680;DHT22;40578;53.178;5.846;2023-04-19T15:12:10;12.90;99.90
54680;DHT22;40578;53.178;5.846;2023-04-19T15:14:37;12.80;99.90
54680;DHT22;40578;53.178;5.846;2023-04-19T15:17:03;12.70;99.90
54680;DHT22;40578;53.178;5.846;2023-04-19T15:19:29;12.70;99.90
54680;DHT22;40578;53.178;5.846;2023-04-19T15:21:55;12.70;99.90
54680;DHT22;40578;53.178;5.846;2023-04-19T15:24:23;13.10;99.90
54680;DHT22;40578;53.178;5.846;2023-04-19T15:26:48;12.70;99.90
54680;DHT22;40578;53.178;5.846;2023-04-19T15:29:14;12.80;99.90
54680;DHT22;40578;53.178;5.846;2023-04-19T15:31:40;12.70;99.90
54680;DHT22;40578;53.178;5.846;2023-04-19T15:34:06;12.60;99.90
54680;DHT22;40578;53.178;5.846;2023-04-19T15:36:31;12.80;99.90
54680;DHT22;40578;53.178;5.846;2023-04-19T15:38:58;12.80;99.90
54680;DHT22;40578;53.178;5.846;2023-04-19T15:41:24;12.50;99.90
54680;DHT22;40578;53.178;5.846;2023-04-19T15:43:49;12.60;99.90
54680;DHT22;40578;53.178;5.846;2023-04-19T15:46:15;12.50;99.90
54680;DHT22;40578;53.178;5.846;2023-04-19T15:48:41;12.50;99.90
54680;DHT22;40578;53.178;5.846;2023-04-19T15:51:09;12.50;99.90
54680;DHT22;40578;53.178;5.846;2023-04-19T15:53:36;12.90;99.90
54680;DHT22;40578;53.178;5.846;2023-04-19T15:56:02;12.40;99.90